createdAt,value
2022-12-25T00:00:05.173Z,3.66
2022-12-25T00:00:52.184Z,3.71
2022-12-25T00:01:39.230Z,3.73
2022-12-25T00:02:26.197Z,3.73
2022-12-25T00:03:13.214Z,3.73
2022-12-25T00:04:00.143Z,3.79
2022-12-25T00:04:47.113Z,3.78
2022-12-25T00:05:34.065Z,3.74
2022-12-25T00:06:20.933Z,3.87
2022-12-25T00:07:07.814Z,3.87
2022-12-25T00:07:54.674Z,3.76
2022-12-25T00:08:41.705Z,3.59
2022-12-25T00:09:29.204Z,3.60
2022-12-25T00:10:16.410Z,3.61
2022-12-25T00:11:09.248Z,3.50
2022-12-25T00:11:56.231Z,3.63
2022-12-25T00:12:43.085Z,3.78
2022-12-25T00:13:30.130Z,3.74
2022-12-25T00:14:17.057Z,3.76
2022-12-25T00:15:04.497Z,3.66
2022-12-25T00:15:51.420Z,3.62
2022-12-25T00:16:38.416Z,3.70
2022-12-25T00:17:25.308Z,3.77
2022-12-25T00:18:12.188Z,3.63
2022-12-25T00:18:59.307Z,3.70
2022-12-25T00:19:46.219Z,3.77
2022-12-25T00:20:33.059Z,3.66
2022-12-25T00:21:20.943Z,3.59
2022-12-25T00:22:07.897Z,3.66
2022-12-25T00:22:54.898Z,3.55
2022-12-25T00:23:42.130Z,3.54
2022-12-25T00:24:29.057Z,3.47
2022-12-25T00:25:15.975Z,3.64
2022-12-25T00:26:12.064Z,3.66
2022-12-25T00:26:58.903Z,3.73
2022-12-25T00:27:45.777Z,3.76
2022-12-25T00:28:32.675Z,3.85
2022-12-25T00:29:19.507Z,3.73
2022-12-25T00:30:08.057Z,3.65
2022-12-25T00:30:54.908Z,3.68
2022-12-25T00:31:41.910Z,3.70
2022-12-25T00:32:28.800Z,3.63
2022-12-25T00:33:16.287Z,3.51
2022-12-25T00:34:03.175Z,3.56
2022-12-25T00:34:50.058Z,3.63
2022-12-25T00:35:36.969Z,3.69
2022-12-25T00:36:24.312Z,3.76
2022-12-25T00:37:11.178Z,3.73
2022-12-25T00:37:58.060Z,3.72
2022-12-25T00:38:45.245Z,3.71
2022-12-25T00:39:32.129Z,3.76
2022-12-25T00:40:19.128Z,3.60
2022-12-25T00:41:11.388Z,3.73
2022-12-25T00:42:16.740Z,3.86
2022-12-25T00:43:03.578Z,3.95
2022-12-25T00:43:50.424Z,3.98
2022-12-25T00:44:37.381Z,3.90
2022-12-25T00:45:24.425Z,3.88
2022-12-25T00:46:13.046Z,3.97
2022-12-25T00:47:00.161Z,4.05
2022-12-25T00:47:47.068Z,4.08
2022-12-25T00:48:34.873Z,3.99
2022-12-25T00:49:23.877Z,4.00
2022-12-25T00:50:11.131Z,3.98
2022-12-25T00:51:00.319Z,3.85
2022-12-25T00:51:47.236Z,3.88
2022-12-25T00:52:34.136Z,3.93
2022-12-25T00:53:21.176Z,3.79
2022-12-25T00:54:08.780Z,3.67
2022-12-25T00:54:55.647Z,3.71
2022-12-25T00:55:42.507Z,3.67
2022-12-25T00:56:29.426Z,3.67
2022-12-25T00:57:16.326Z,3.84
2022-12-25T00:58:03.217Z,3.91
2022-12-25T00:58:50.136Z,3.80
2022-12-25T00:59:37.022Z,3.68
2022-12-25T01:00:23.931Z,3.64
2022-12-25T01:01:11.529Z,3.51
2022-12-25T01:02:18.513Z,3.52
2022-12-25T01:03:05.527Z,3.63
2022-12-25T01:03:52.427Z,3.63
2022-12-25T01:04:39.289Z,3.69
2022-12-25T01:05:26.185Z,3.77
2022-12-25T01:06:13.382Z,3.87
2022-12-25T01:07:00.271Z,3.86
2022-12-25T01:07:47.177Z,3.69
2022-12-25T01:08:36.735Z,3.65
2022-12-25T01:09:42.362Z,3.64
2022-12-25T01:10:29.287Z,3.64
2022-12-25T01:11:16.126Z,3.65
2022-12-25T01:12:02.954Z,3.62
2022-12-25T01:12:50.528Z,3.59
2022-12-25T01:13:38.056Z,3.55
2022-12-25T01:14:24.899Z,3.58
2022-12-25T01:15:12.857Z,3.62
2022-12-25T01:15:59.745Z,3.74
2022-12-25T01:16:47.144Z,3.71
2022-12-25T01:17:34.527Z,3.61
2022-12-25T01:18:23.036Z,3.64
2022-12-25T01:19:10.337Z,3.74
2022-12-25T01:19:57.227Z,3.88
2022-12-25T01:20:44.077Z,3.93
2022-12-25T01:21:31.598Z,3.92
2022-12-25T01:22:18.789Z,3.92
2022-12-25T01:23:05.706Z,3.90
2022-12-25T01:23:53.591Z,4.02
2022-12-25T01:24:40.445Z,3.93
2022-12-25T01:25:27.268Z,3.92
2022-12-25T01:26:19.014Z,3.79
2022-12-25T01:27:05.926Z,3.84
2022-12-25T01:27:52.808Z,3.88
2022-12-25T01:28:40.263Z,4.04
2022-12-25T01:29:27.167Z,4.01
2022-12-25T01:30:14.148Z,4.00
2022-12-25T01:31:01.298Z,4.02
2022-12-25T01:31:48.279Z,4.05
2022-12-25T01:32:35.195Z,4.07
2022-12-25T01:33:22.036Z,4.23
2022-12-25T01:34:08.887Z,4.25
2022-12-25T01:34:56.476Z,4.17
2022-12-25T01:35:43.446Z,4.21
2022-12-25T01:36:30.396Z,4.28
2022-12-25T01:37:17.247Z,4.33
2022-12-25T01:38:04.068Z,4.22
2022-12-25T01:38:52.252Z,4.21
2022-12-25T01:39:39.197Z,4.16
2022-12-25T01:40:26.110Z,4.21
2022-12-25T01:41:13.937Z,4.22
2022-12-25T01:42:00.784Z,4.15
2022-12-25T01:42:47.637Z,4.13
2022-12-25T01:43:34.656Z,4.05
2022-12-25T01:44:36.889Z,3.87
2022-12-25T01:45:35.849Z,4.05
2022-12-25T01:46:22.795Z,3.98
2022-12-25T01:47:09.696Z,4.08
2022-12-25T01:47:56.654Z,4.07
2022-12-25T01:48:43.537Z,4.00
2022-12-25T01:49:32.607Z,4.04
2022-12-25T01:50:20.227Z,4.14
2022-12-25T01:51:15.928Z,4.21
2022-12-25T01:52:23.597Z,4.27
2022-12-25T01:53:11.177Z,4.30
2022-12-25T01:54:00.161Z,4.42
2022-12-25T01:54:54.367Z,4.46
2022-12-25T01:55:42.847Z,4.39
2022-12-25T01:56:30.447Z,4.23
2022-12-25T01:57:22.367Z,4.33
2022-12-25T01:58:10.071Z,4.35
2022-12-25T01:58:57.795Z,4.26
2022-12-25T01:59:44.886Z,4.21
2022-12-25T02:00:31.876Z,4.16
2022-12-25T02:01:18.870Z,4.14
2022-12-25T02:02:06.041Z,4.19
2022-12-25T02:02:53.114Z,4.27
2022-12-25T02:03:42.585Z,4.22
2022-12-25T02:04:40.688Z,4.21
2022-12-25T02:05:33.054Z,4.14
2022-12-25T02:06:19.985Z,4.15
2022-12-25T02:07:15.916Z,4.34
2022-12-25T02:08:08.477Z,4.29
2022-12-25T02:08:55.378Z,4.26
2022-12-25T02:09:43.066Z,4.27
2022-12-25T02:10:30.292Z,4.33
2022-12-25T02:11:37.113Z,4.35
2022-12-25T02:12:27.212Z,4.32
2022-12-25T02:13:16.890Z,4.30
2022-12-25T02:14:03.761Z,4.31
2022-12-25T02:14:53.056Z,4.22
2022-12-25T02:16:17.781Z,4.29
2022-12-25T02:17:07.678Z,4.33
2022-12-25T02:18:00.125Z,4.45
2022-12-25T02:18:54.584Z,4.46
2022-12-25T02:20:04.020Z,4.27
2022-12-25T02:21:30.955Z,4.22
2022-12-25T02:22:35.006Z,4.36
2022-12-25T02:23:46.066Z,4.37
2022-12-25T02:24:41.826Z,4.49
2022-12-25T02:25:47.347Z,4.45
2022-12-25T02:27:01.361Z,4.35
2022-12-25T02:28:04.769Z,4.35
2022-12-25T02:29:34.368Z,4.43
2022-12-25T02:30:22.331Z,4.54
2022-12-25T02:31:38.211Z,4.61
2022-12-25T02:32:30.672Z,4.60
2022-12-25T02:33:45.240Z,4.57
2022-12-25T02:34:36.095Z,4.44
2022-12-25T02:35:28.797Z,4.54
2022-12-25T02:36:21.310Z,4.45
2022-12-25T02:37:17.151Z,4.58
2022-12-25T02:38:12.739Z,4.69
2022-12-25T02:39:21.241Z,4.70
2022-12-25T02:40:21.280Z,4.72
2022-12-25T02:41:12.091Z,4.76
2022-12-25T02:42:00.927Z,4.82
2022-12-25T02:43:12.234Z,4.90
2022-12-25T02:44:20.337Z,4.79
2022-12-25T02:45:26.007Z,4.67
2022-12-25T02:46:34.440Z,4.70
2022-12-25T02:47:40.932Z,4.69
2022-12-25T02:48:49.020Z,4.57
2022-12-25T02:49:54.904Z,4.61
2022-12-25T02:51:00.381Z,4.58
2022-12-25T02:52:11.019Z,4.60
2022-12-25T02:53:17.888Z,4.65
2022-12-25T02:54:26.847Z,4.76
2022-12-25T02:55:36.563Z,4.79
2022-12-25T02:56:42.517Z,4.69
2022-12-25T02:58:06.581Z,4.89
2022-12-25T02:59:12.281Z,4.79
2022-12-25T03:00:19.506Z,4.76
2022-12-25T03:01:29.661Z,4.96
2022-12-25T03:02:36.272Z,5.09
2022-12-25T03:03:45.248Z,5.17
2022-12-25T03:04:51.300Z,5.10
2022-12-25T03:05:59.739Z,5.09
2022-12-25T03:07:04.608Z,5.02
2022-12-25T03:07:51.718Z,5.20
2022-12-25T03:08:41.164Z,5.08
2022-12-25T03:09:49.519Z,5.17
2022-12-25T03:10:57.026Z,5.22
2022-12-25T03:11:46.043Z,5.07
2022-12-25T03:12:59.977Z,5.02
2022-12-25T03:13:50.158Z,5.04
2022-12-25T03:14:55.529Z,4.95
2022-12-25T03:16:01.302Z,5.04
2022-12-25T03:16:54.658Z,5.08
2022-12-25T03:17:41.838Z,5.00
2022-12-25T03:18:31.105Z,5.03
2022-12-25T03:19:37.494Z,5.10
2022-12-25T03:20:44.025Z,5.02
2022-12-25T03:21:49.490Z,5.08
2022-12-25T03:22:55.088Z,5.00
2022-12-25T03:24:04.181Z,5.17
2022-12-25T03:25:09.704Z,5.04
2022-12-25T03:26:15.098Z,5.02
2022-12-25T03:27:01.999Z,5.07
2022-12-25T03:27:51.277Z,5.11
2022-12-25T03:28:38.151Z,5.21
2022-12-25T03:29:53.059Z,5.11
2022-12-25T03:30:58.265Z,5.16
2022-12-25T03:31:54.446Z,5.10
2022-12-25T03:32:49.621Z,5.03
2022-12-25T03:34:11.456Z,5.11
2022-12-25T03:35:25.962Z,5.14
2022-12-25T03:36:25.667Z,5.09
2022-12-25T03:37:43.816Z,5.09
2022-12-25T03:38:52.518Z,5.09
2022-12-25T03:39:54.959Z,5.15
2022-12-25T03:41:10.187Z,5.25
2022-12-25T03:42:19.772Z,5.17
2022-12-25T03:43:37.918Z,5.27
2022-12-25T03:44:43.101Z,5.16
2022-12-25T03:45:59.273Z,5.29
2022-12-25T03:47:22.618Z,5.39
2022-12-25T03:48:13.819Z,5.41
2022-12-25T03:49:26.694Z,5.23
2022-12-25T03:50:37.888Z,5.19
2022-12-25T03:51:49.323Z,5.24
2022-12-25T03:52:55.632Z,5.33
2022-12-25T03:54:07.333Z,5.43
2022-12-25T03:55:15.632Z,5.43
2022-12-25T03:56:21.770Z,5.47
2022-12-25T03:57:28.228Z,5.47
2022-12-25T03:58:39.079Z,5.51
2022-12-25T03:59:44.697Z,5.43
2022-12-25T04:00:50.265Z,5.45
2022-12-25T04:01:55.831Z,5.47
2022-12-25T04:03:01.429Z,5.52
2022-12-25T04:04:07.226Z,5.63
2022-12-25T04:05:12.833Z,5.61
2022-12-25T04:06:18.458Z,5.62
2022-12-25T04:07:24.253Z,5.60
2022-12-25T04:08:29.940Z,5.55
2022-12-25T04:09:35.607Z,5.62
2022-12-25T04:10:41.287Z,5.62
2022-12-25T04:11:46.875Z,5.59
2022-12-25T04:12:52.626Z,5.51
2022-12-25T04:13:58.350Z,5.47
2022-12-25T04:15:03.920Z,5.31
2022-12-25T04:16:24.769Z,5.40
2022-12-25T04:17:29.911Z,5.55
2022-12-25T04:18:52.391Z,5.55
2022-12-25T04:19:58.189Z,5.60
2022-12-25T04:21:03.762Z,5.63
2022-12-25T04:22:09.241Z,5.56
2022-12-25T04:23:14.852Z,5.31
2022-12-25T04:24:20.426Z,5.44
2022-12-25T04:25:26.093Z,5.54
2022-12-25T04:26:31.733Z,5.66
2022-12-25T04:27:37.331Z,5.76
2022-12-25T04:28:42.833Z,5.75
2022-12-25T04:29:48.484Z,5.53
2022-12-25T04:30:54.319Z,5.52
2022-12-25T04:31:59.967Z,5.65
2022-12-25T04:33:05.346Z,5.71
2022-12-25T04:34:10.943Z,5.80
2022-12-25T04:35:16.579Z,5.80
2022-12-25T04:36:09.626Z,5.84
2022-12-25T04:36:56.634Z,5.87
2022-12-25T04:37:43.528Z,5.80
2022-12-25T04:38:30.389Z,5.66
2022-12-25T04:39:17.391Z,5.67
2022-12-25T04:40:04.783Z,5.72
2022-12-25T04:40:51.650Z,5.80
2022-12-25T04:41:38.643Z,5.72
2022-12-25T04:42:25.491Z,5.73
2022-12-25T04:43:12.387Z,5.66
2022-12-25T04:43:59.258Z,5.67
2022-12-25T04:44:46.110Z,5.63
2022-12-25T04:45:33.044Z,5.71
2022-12-25T04:46:19.970Z,5.72
2022-12-25T04:47:11.118Z,5.73
2022-12-25T04:48:01.372Z,5.63
2022-12-25T04:48:48.434Z,5.70
2022-12-25T04:49:35.343Z,5.76
2022-12-25T04:50:22.204Z,5.78
2022-12-25T04:51:12.697Z,5.77
2022-12-25T04:51:59.569Z,5.79
2022-12-25T04:52:46.449Z,5.77
2022-12-25T04:53:33.263Z,5.71
2022-12-25T04:54:20.179Z,5.72
2022-12-25T04:55:08.044Z,5.70
2022-12-25T04:56:01.665Z,5.68
2022-12-25T04:56:48.506Z,5.69
2022-12-25T04:57:35.563Z,5.67
2022-12-25T04:58:22.431Z,5.67
2022-12-25T04:59:09.336Z,5.38
2022-12-25T04:59:56.232Z,5.30
2022-12-25T05:00:43.095Z,5.27
2022-12-25T05:01:30.156Z,5.14
2022-12-25T05:02:17.158Z,4.98
2022-12-25T05:03:04.218Z,4.99
2022-12-25T05:03:51.197Z,4.97
2022-12-25T05:04:38.117Z,5.00
2022-12-25T05:05:25.208Z,5.01
2022-12-25T05:06:12.042Z,5.09
2022-12-25T05:06:58.861Z,5.14
2022-12-25T05:07:45.846Z,5.16
2022-12-25T05:08:34.323Z,5.17
2022-12-25T05:09:21.703Z,5.16
2022-12-25T05:10:08.991Z,5.15
2022-12-25T05:10:55.873Z,5.05
2022-12-25T05:11:42.725Z,4.91
2022-12-25T05:12:29.544Z,4.87
2022-12-25T05:13:16.717Z,4.74
2022-12-25T05:14:03.693Z,4.80
2022-12-25T05:14:50.639Z,4.83
2022-12-25T05:15:40.500Z,4.74
2022-12-25T05:16:27.602Z,4.80
2022-12-25T05:17:14.525Z,4.88
2022-12-25T05:18:01.444Z,4.88
2022-12-25T05:18:52.230Z,4.89
2022-12-25T05:19:39.066Z,4.89
2022-12-25T05:20:26.088Z,4.87
2022-12-25T05:21:13.253Z,4.88
2022-12-25T05:22:00.106Z,4.84
2022-12-25T05:22:46.929Z,4.76
2022-12-25T05:23:34.263Z,4.75
2022-12-25T05:24:21.182Z,4.77
2022-12-25T05:25:08.402Z,4.77
2022-12-25T05:25:55.260Z,4.76
2022-12-25T05:26:42.072Z,4.81
2022-12-25T05:27:28.940Z,4.78
2022-12-25T05:28:16.100Z,4.75
2022-12-25T05:29:02.900Z,4.74
2022-12-25T05:29:49.812Z,4.62
2022-12-25T05:30:36.793Z,4.42
2022-12-25T05:31:23.776Z,4.30
2022-12-25T05:32:10.698Z,4.40
2022-12-25T05:32:57.647Z,4.33
2022-12-25T05:33:44.620Z,4.33
2022-12-25T05:34:31.466Z,4.26
2022-12-25T05:35:18.373Z,4.37
2022-12-25T05:36:07.310Z,4.32
2022-12-25T05:36:54.144Z,4.02
2022-12-25T05:37:41.000Z,3.99
2022-12-25T05:38:27.883Z,4.02
2022-12-25T05:39:14.737Z,4.12
2022-12-25T05:40:02.467Z,4.22
2022-12-25T05:40:51.569Z,4.12
2022-12-25T05:41:38.409Z,3.88
2022-12-25T05:42:25.271Z,3.78
2022-12-25T05:43:12.152Z,3.91
2022-12-25T05:43:59.057Z,3.96
2022-12-25T05:44:45.907Z,3.95
2022-12-25T05:45:32.843Z,3.94
2022-12-25T05:46:19.765Z,3.87
2022-12-25T05:47:06.674Z,3.88
2022-12-25T05:47:53.719Z,3.77
2022-12-25T05:48:40.581Z,3.64
2022-12-25T05:49:27.447Z,3.55
2022-12-25T05:50:14.320Z,3.53
2022-12-25T05:51:09.662Z,3.63
2022-12-25T05:51:56.504Z,3.77
2022-12-25T05:52:43.395Z,3.86
2022-12-25T05:53:30.262Z,3.89
2022-12-25T05:54:17.292Z,3.90
2022-12-25T05:55:04.433Z,3.76
2022-12-25T05:55:51.375Z,3.76
2022-12-25T05:56:38.718Z,3.71
2022-12-25T05:57:26.192Z,3.66
2022-12-25T05:58:13.798Z,3.75
2022-12-25T05:59:00.642Z,3.76
2022-12-25T05:59:47.534Z,3.78
2022-12-25T06:00:35.017Z,3.78
2022-12-25T06:01:25.386Z,3.80
2022-12-25T06:02:12.496Z,3.73
2022-12-25T06:02:59.989Z,3.79
2022-12-25T06:03:47.381Z,3.84
2022-12-25T06:04:34.329Z,4.00
2022-12-25T06:05:21.275Z,4.05
2022-12-25T06:06:08.542Z,4.06
2022-12-25T06:06:55.434Z,4.06
2022-12-25T06:07:42.263Z,4.11
2022-12-25T06:08:29.209Z,4.16
2022-12-25T06:09:16.075Z,4.09
2022-12-25T06:10:02.969Z,3.93
2022-12-25T06:10:49.852Z,3.97
2022-12-25T06:11:36.730Z,3.93
2022-12-25T06:12:23.631Z,3.93
2022-12-25T06:13:10.584Z,4.00
2022-12-25T06:13:57.443Z,4.00
2022-12-25T06:14:44.382Z,3.98
2022-12-25T06:15:31.277Z,3.95
2022-12-25T06:16:18.529Z,3.91
2022-12-25T06:17:05.506Z,3.95
2022-12-25T06:17:52.456Z,3.94
2022-12-25T06:18:45.119Z,3.97
2022-12-25T06:19:31.987Z,4.11
2022-12-25T06:20:18.912Z,4.17
2022-12-25T06:21:13.339Z,4.25
2022-12-25T06:22:00.270Z,4.27
2022-12-25T06:22:47.349Z,4.28
2022-12-25T06:23:34.424Z,4.22
2022-12-25T06:24:22.663Z,4.22
2022-12-25T06:25:10.002Z,4.23
2022-12-25T06:25:57.185Z,4.21
2022-12-25T06:26:44.045Z,4.04
2022-12-25T06:27:30.961Z,3.94
2022-12-25T06:28:17.826Z,3.95
2022-12-25T06:29:04.832Z,3.96
2022-12-25T06:29:52.044Z,3.78
2022-12-25T06:30:38.890Z,3.72
2022-12-25T06:31:25.985Z,3.76
2022-12-25T06:32:12.854Z,3.76
2022-12-25T06:33:00.421Z,3.66
2022-12-25T06:33:47.645Z,3.59
2022-12-25T06:34:34.482Z,3.70
2022-12-25T06:35:21.330Z,3.74
2022-12-25T06:36:19.817Z,3.84
2022-12-25T06:37:06.862Z,3.79
2022-12-25T06:37:53.982Z,3.88
2022-12-25T06:38:41.682Z,3.96
2022-12-25T06:39:28.628Z,4.01
2022-12-25T06:40:15.570Z,4.08
2022-12-25T06:41:10.577Z,4.18
2022-12-25T06:41:57.466Z,4.15
2022-12-25T06:42:44.444Z,4.23
2022-12-25T06:43:31.293Z,4.26
2022-12-25T06:44:18.212Z,4.22
2022-12-25T06:45:05.533Z,4.19
2022-12-25T06:45:53.295Z,4.12
2022-12-25T06:46:40.511Z,4.12
2022-12-25T06:47:27.322Z,4.14
2022-12-25T06:48:14.168Z,4.14
2022-12-25T06:49:01.390Z,4.16
2022-12-25T06:49:48.270Z,4.17
2022-12-25T06:50:35.136Z,4.11
2022-12-25T06:51:24.549Z,4.21
2022-12-25T06:52:11.371Z,4.30
2022-12-25T06:52:58.234Z,4.39
2022-12-25T06:53:45.211Z,4.39
2022-12-25T06:54:32.092Z,4.42
2022-12-25T06:55:18.981Z,4.44
2022-12-25T06:56:15.908Z,4.46
2022-12-25T06:57:02.841Z,4.49
2022-12-25T06:57:49.672Z,4.38
2022-12-25T06:58:36.569Z,4.18
2022-12-25T06:59:23.474Z,4.19
2022-12-25T07:00:10.840Z,4.22
2022-12-25T07:00:58.210Z,4.33
2022-12-25T07:01:47.855Z,4.44
2022-12-25T07:02:35.628Z,4.49
2022-12-25T07:03:22.774Z,4.51
2022-12-25T07:04:39.302Z,4.45
2022-12-25T07:05:26.211Z,4.35
2022-12-25T07:06:13.112Z,4.42
2022-12-25T07:07:06.107Z,4.44
2022-12-25T07:07:55.191Z,4.45
2022-12-25T07:08:42.051Z,4.50
2022-12-25T07:09:28.965Z,4.52
2022-12-25T07:10:15.884Z,4.62
2022-12-25T07:11:02.971Z,4.61
2022-12-25T07:11:49.804Z,4.61
2022-12-25T07:12:36.840Z,4.69
2022-12-25T07:13:24.527Z,4.63
2022-12-25T07:14:24.148Z,4.65
2022-12-25T07:15:11.574Z,4.72
2022-12-25T07:16:02.807Z,4.79
2022-12-25T07:16:50.406Z,4.83
2022-12-25T07:17:37.430Z,4.86
2022-12-25T07:18:24.525Z,4.86
2022-12-25T07:19:11.770Z,4.84
2022-12-25T07:19:58.589Z,4.86
2022-12-25T07:20:45.410Z,4.82
2022-12-25T07:21:32.261Z,4.86
2022-12-25T07:22:19.119Z,4.90
2022-12-25T07:23:06.051Z,4.92
2022-12-25T07:23:53.036Z,4.98
2022-12-25T07:24:39.915Z,4.98
2022-12-25T07:25:29.756Z,4.89
2022-12-25T07:26:19.419Z,4.90
2022-12-25T07:27:06.477Z,4.86
2022-12-25T07:27:53.341Z,4.91
2022-12-25T07:28:40.265Z,4.97
2022-12-25T07:29:27.131Z,5.12
2022-12-25T07:30:14.301Z,5.24
2022-12-25T07:31:05.192Z,5.29
2022-12-25T07:31:52.072Z,5.41
2022-12-25T07:32:39.067Z,5.44
2022-12-25T07:33:25.921Z,5.46
2022-12-25T07:34:12.887Z,5.52
2022-12-25T07:34:59.770Z,5.42
2022-12-25T07:35:46.799Z,5.34
2022-12-25T07:36:33.663Z,5.20
2022-12-25T07:37:20.483Z,5.14
2022-12-25T07:38:07.331Z,5.24
2022-12-25T07:38:54.275Z,5.22
2022-12-25T07:39:41.568Z,5.19
2022-12-25T07:40:28.473Z,5.30
2022-12-25T07:41:15.460Z,5.48
2022-12-25T07:42:02.340Z,5.58
2022-12-25T07:42:49.174Z,5.69
2022-12-25T07:43:36.021Z,5.82
2022-12-25T07:44:22.896Z,5.97
2022-12-25T07:45:10.270Z,6.06
2022-12-25T07:45:58.998Z,6.18
2022-12-25T07:46:46.325Z,6.25
2022-12-25T07:47:33.199Z,6.15
2022-12-25T07:48:20.082Z,6.20
2022-12-25T07:49:07.001Z,6.23
2022-12-25T07:49:53.930Z,6.15
2022-12-25T07:50:40.925Z,6.09
2022-12-25T07:51:30.302Z,6.00
2022-12-25T07:52:17.220Z,6.06
2022-12-25T07:53:04.171Z,6.21
2022-12-25T07:53:51.090Z,6.29
2022-12-25T07:54:37.921Z,6.31
2022-12-25T07:55:24.805Z,6.39
2022-12-25T07:56:19.754Z,6.31
2022-12-25T07:57:08.246Z,6.23
2022-12-25T07:57:55.183Z,6.36
2022-12-25T07:58:42.571Z,6.43
2022-12-25T07:59:29.371Z,6.41
2022-12-25T08:00:16.932Z,6.29
2022-12-25T08:01:06.645Z,6.30
2022-12-25T08:01:53.825Z,6.23
2022-12-25T08:02:41.130Z,6.17
2022-12-25T08:03:28.312Z,6.27
2022-12-25T08:04:15.344Z,6.29
2022-12-25T08:05:02.343Z,6.32
2022-12-25T08:05:49.253Z,6.31
2022-12-25T08:06:36.439Z,6.31
2022-12-25T08:07:23.633Z,6.52
2022-12-25T08:08:10.518Z,6.60
2022-12-25T08:09:09.143Z,6.72
2022-12-25T08:09:56.007Z,6.89
2022-12-25T08:10:47.292Z,7.04
2022-12-25T08:11:34.162Z,7.15
2022-12-25T08:12:21.069Z,7.24
2022-12-25T08:13:14.125Z,7.30
2022-12-25T08:14:01.508Z,7.37
2022-12-25T08:14:48.426Z,7.44
2022-12-25T08:15:35.333Z,7.48
2022-12-25T08:16:22.958Z,7.44
2022-12-25T08:17:09.871Z,7.44
2022-12-25T08:17:56.785Z,7.45
2022-12-25T08:18:43.915Z,7.53
2022-12-25T08:19:30.935Z,7.61
2022-12-25T08:20:17.861Z,7.57
2022-12-25T08:21:06.132Z,7.71
2022-12-25T08:21:52.981Z,7.81
2022-12-25T08:22:39.814Z,7.86
2022-12-25T08:23:27.041Z,7.86
2022-12-25T08:24:13.951Z,7.92
2022-12-25T08:25:00.889Z,7.96
2022-12-25T08:25:47.773Z,8.01
2022-12-25T08:26:34.738Z,8.00
2022-12-25T08:27:21.602Z,7.92
2022-12-25T08:28:08.540Z,7.78
2022-12-25T08:28:55.401Z,7.66
2022-12-25T08:29:44.841Z,7.62
2022-12-25T08:30:31.827Z,7.78
2022-12-25T08:31:24.185Z,7.80
2022-12-25T08:32:11.167Z,7.80
2022-12-25T08:32:58.000Z,7.86
2022-12-25T08:33:45.183Z,7.87
2022-12-25T08:34:32.092Z,7.90
2022-12-25T08:35:19.012Z,8.00
2022-12-25T08:36:07.944Z,8.15
2022-12-25T08:36:54.841Z,8.22
2022-12-25T08:37:41.842Z,8.32
2022-12-25T08:38:28.745Z,8.37
2022-12-25T08:39:15.701Z,8.44
2022-12-25T08:40:02.571Z,8.39
2022-12-25T08:40:49.687Z,8.41
2022-12-25T08:41:36.735Z,8.26
2022-12-25T08:42:23.543Z,8.33
2022-12-25T08:43:10.370Z,8.40
2022-12-25T08:43:57.272Z,8.44
2022-12-25T08:44:44.323Z,8.54
2022-12-25T08:45:35.248Z,8.62
2022-12-25T08:46:22.562Z,8.63
2022-12-25T08:47:09.431Z,8.67
2022-12-25T08:47:57.201Z,8.69
2022-12-25T08:48:47.965Z,8.64
2022-12-25T08:49:34.866Z,8.64
2022-12-25T08:50:25.890Z,8.65
2022-12-25T08:51:15.097Z,8.72
2022-12-25T08:52:02.004Z,8.75
2022-12-25T08:52:49.046Z,8.81
2022-12-25T08:53:35.903Z,8.76
2022-12-25T08:54:22.792Z,8.73
2022-12-25T08:55:10.009Z,8.78
2022-12-25T08:56:01.309Z,8.86
2022-12-25T08:56:48.144Z,8.90
2022-12-25T08:57:35.073Z,8.86
2022-12-25T08:58:21.909Z,8.95
2022-12-25T08:59:55.690Z,9.02
2022-12-25T09:00:42.762Z,9.10
2022-12-25T09:01:29.730Z,9.07
2022-12-25T09:02:17.680Z,9.09
2022-12-25T09:03:04.950Z,9.05
2022-12-25T09:03:51.984Z,9.06
2022-12-25T09:04:39.077Z,9.11
2022-12-25T09:05:26.056Z,9.09
2022-12-25T09:06:14.890Z,9.06
2022-12-25T09:07:02.852Z,9.21
2022-12-25T09:07:49.712Z,9.31
2022-12-25T09:08:41.025Z,9.42
2022-12-25T09:09:31.715Z,9.34
2022-12-25T09:10:18.653Z,9.49
2022-12-25T09:11:11.426Z,9.56
2022-12-25T09:11:58.309Z,9.53
2022-12-25T09:12:45.172Z,9.64
2022-12-25T09:13:32.154Z,9.72
2022-12-25T09:14:19.073Z,9.66
2022-12-25T09:15:06.376Z,9.57
2022-12-25T09:15:53.277Z,9.69
2022-12-25T09:16:40.252Z,9.70
2022-12-25T09:17:27.151Z,9.79
2022-12-25T09:18:14.327Z,9.88
2022-12-25T09:19:01.213Z,9.85
2022-12-25T09:19:48.091Z,9.94
2022-12-25T09:20:34.972Z,10.01
2022-12-25T09:21:21.893Z,10.10
2022-12-25T09:22:08.703Z,10.09
2022-12-25T09:22:55.562Z,10.11
2022-12-25T09:23:42.657Z,10.25
2022-12-25T09:24:29.553Z,10.31
2022-12-25T09:25:16.516Z,10.38
2022-12-25T09:26:04.944Z,10.48
2022-12-25T09:26:51.860Z,10.54
2022-12-25T09:27:38.751Z,10.58
2022-12-25T09:28:25.887Z,10.60
2022-12-25T09:29:12.847Z,10.61
2022-12-25T09:29:59.735Z,10.69
2022-12-25T09:30:46.774Z,10.76
2022-12-25T09:31:33.794Z,10.83
2022-12-25T09:32:20.650Z,10.80
2022-12-25T09:33:07.635Z,10.85
2022-12-25T09:33:57.161Z,10.94
2022-12-25T09:34:44.012Z,11.00
2022-12-25T09:35:30.891Z,11.09
2022-12-25T09:36:18.014Z,11.13
2022-12-25T09:37:04.848Z,11.21
2022-12-25T09:37:51.677Z,11.26
2022-12-25T09:38:38.614Z,11.33
2022-12-25T09:39:25.421Z,11.32
2022-12-25T09:40:16.245Z,11.26
2022-12-25T09:41:31.799Z,11.28
2022-12-25T09:42:23.059Z,11.35
2022-12-25T09:43:12.376Z,11.34
2022-12-25T09:44:26.792Z,11.37
2022-12-25T09:45:25.913Z,11.35
2022-12-25T09:46:16.394Z,11.28
2022-12-25T09:47:06.823Z,11.22
2022-12-25T09:47:56.813Z,11.30
2022-12-25T09:48:57.741Z,11.31
2022-12-25T09:50:12.038Z,11.39
2022-12-25T09:51:09.439Z,11.41
2022-12-25T09:52:01.811Z,11.41
2022-12-25T09:52:51.805Z,11.28
2022-12-25T09:53:48.801Z,11.25
2022-12-25T09:54:44.559Z,11.15
2022-12-25T09:55:33.749Z,11.21
2022-12-25T09:56:26.071Z,11.11
2022-12-25T09:57:14.346Z,11.10
2022-12-25T09:58:03.121Z,11.15
2022-12-25T09:58:49.981Z,11.17
2022-12-25T09:59:37.120Z,11.19
2022-12-25T10:00:26.033Z,11.07
2022-12-25T10:01:12.899Z,11.02
2022-12-25T10:02:41.434Z,11.12
2022-12-25T10:03:38.557Z,11.17
2022-12-25T10:04:41.334Z,11.20
2022-12-25T10:05:28.213Z,11.13
2022-12-25T10:06:24.542Z,11.07
2022-12-25T10:07:45.945Z,11.01
2022-12-25T10:09:05.221Z,10.90
2022-12-25T10:10:19.863Z,10.93
2022-12-25T10:11:11.741Z,10.97
2022-12-25T10:12:17.321Z,10.97
2022-12-25T10:13:04.100Z,10.89
2022-12-25T10:14:17.318Z,10.79
2022-12-25T10:15:19.878Z,10.82
2022-12-25T10:16:28.144Z,10.89
2022-12-25T10:17:33.273Z,10.91
2022-12-25T10:18:51.042Z,10.92
2022-12-25T10:19:43.593Z,11.00
2022-12-25T10:21:00.580Z,11.03
2022-12-25T10:21:48.972Z,10.89
2022-12-25T10:22:41.313Z,10.86
2022-12-25T10:23:37.266Z,10.82
2022-12-25T10:24:35.401Z,10.88
2022-12-25T10:25:24.700Z,11.00
2022-12-25T10:26:20.038Z,10.94
2022-12-25T10:27:19.965Z,10.94
2022-12-25T10:28:14.573Z,10.99
2022-12-25T10:29:14.604Z,11.02
2022-12-25T10:30:02.318Z,11.01
2022-12-25T10:30:50.804Z,11.03
2022-12-25T10:31:37.853Z,11.06
2022-12-25T10:32:25.020Z,11.10
2022-12-25T10:33:17.043Z,11.07
2022-12-25T10:34:05.758Z,11.09
2022-12-25T10:34:52.748Z,11.03
2022-12-25T10:35:39.775Z,11.07
2022-12-25T10:36:28.531Z,11.10
2022-12-25T10:37:15.401Z,11.13
2022-12-25T10:38:06.842Z,11.16
2022-12-25T10:38:54.385Z,11.18
2022-12-25T10:39:46.372Z,11.18
2022-12-25T10:40:57.102Z,11.16
2022-12-25T10:42:19.084Z,11.18
2022-12-25T10:43:13.304Z,11.22
2022-12-25T10:44:00.481Z,11.24
2022-12-25T10:44:57.902Z,11.26
2022-12-25T10:45:49.410Z,11.24
2022-12-25T10:46:36.363Z,11.30
2022-12-25T10:47:34.737Z,11.36
2022-12-25T10:48:23.603Z,11.39
2022-12-25T10:49:16.157Z,11.45
2022-12-25T10:50:10.213Z,11.50
2022-12-25T10:50:57.520Z,11.54
2022-12-25T10:51:44.616Z,11.42
2022-12-25T10:52:31.481Z,11.42
2022-12-25T10:53:23.238Z,11.44
2022-12-25T10:54:25.988Z,11.48
2022-12-25T10:55:13.816Z,11.62
2022-12-25T10:56:03.403Z,11.73
2022-12-25T10:56:58.357Z,11.83
2022-12-25T10:57:46.693Z,11.94
2022-12-25T10:58:34.150Z,12.02
2022-12-25T10:59:21.011Z,12.04
2022-12-25T11:00:20.744Z,12.07
2022-12-25T11:01:08.018Z,12.15
2022-12-25T11:01:55.929Z,12.06
2022-12-25T11:02:42.994Z,12.03
2022-12-25T11:03:35.601Z,12.05
2022-12-25T11:04:26.371Z,12.10
2022-12-25T11:05:18.425Z,12.13
2022-12-25T11:06:05.941Z,12.16
2022-12-25T11:06:59.424Z,12.14
2022-12-25T11:07:51.438Z,12.15
2022-12-25T11:08:38.361Z,12.04
2022-12-25T11:09:25.347Z,11.97
2022-12-25T11:10:37.755Z,12.00
2022-12-25T11:11:25.050Z,12.10
2022-12-25T11:12:18.580Z,12.14
2022-12-25T11:13:07.819Z,12.12
2022-12-25T11:13:57.785Z,12.09
2022-12-25T11:14:55.881Z,12.09
2022-12-25T11:15:44.631Z,12.12
2022-12-25T11:16:38.210Z,12.20
2022-12-25T11:17:26.613Z,12.23
2022-12-25T11:18:23.746Z,12.18
2022-12-25T11:19:31.898Z,12.21
2022-12-25T11:20:20.419Z,12.28
2022-12-25T11:21:31.804Z,12.34
2022-12-25T11:22:21.385Z,12.26
2022-12-25T11:23:11.046Z,12.35
2022-12-25T11:24:03.284Z,12.53
2022-12-25T11:24:50.239Z,12.60